Nashville, Tennessee
Traffic Map
Current Weather Conditions
Nashville, Tennessee
Overcast
Overcast
57°
Feels Like: 57°
Wind Chill: 57° Ceiling: 2000
Heat Index: 57° Visibility: 9mi
Dew Point: 52° Wind: 10mph
Humidity: 83% Direction: 320° (NW)
Pressure: 29.97in Gusts: 0mph
Raw Report DataKBNA 251053Z 32009KT 9SM FEW012 OVC020 14/11 A2997 RMK AO2 SLP147 T01390111 $
Traffic Incident Summary
Active as of:
Severity:
Category:
InformationThere was an issue retrieving the traffic information for this location. Please try a different location or try again shortly.
Advertisements